Skip to main content

Table 7 Meteorological data of the typical day (25/7/2011)

From: Bioclimatic rehabilitation of an open market place by a computational fluid dynamics simulation assessment

Date Time Pressure (mbar) Temperaure (°C) Relative Humidity(%) Wind Speed(m/s) Wind Direction (o) Solar Radiation (W/m2)
25/07/11 01:00 937 18.6 74 0.4 175 0
25/07/11 02:00 937 18.4 72 0.5 94 0
25/07/11 03:00 937 16.4 80 0.5 255 0
25/07/11 04:00 936 16.2 79 0.4 217 0
25/07/11 05:00 936 15.2 84 0.4 258 0
25/07/11 06:00 937 15.7 81 0.5 65 14
25/07/11 07:00 937 17.4 73 0.5 257 124
25/07/11 08:00 937 21.4 54 0.5 230 289
25/07/11 09:00 938 24 44 0.9 71 463
25/07/11 10:00 938 25.7 48 1 59 608
25/07/11 11:00 938 27.3 47 0.7 14 722
25/07/11 12:00 938 27.7 45 0.7 227 665
25/07/11 13:00 938 29.1 40 0.9 284 720
25/07/11 14:00 938 30.6 35 0.8 296 815
25/07/11 15:00 937 30.2 31 1 258 676
25/07/11 16:00 937 31.5 36 1.2 289 608
25/07/11 17:00 937 30.8 46 1.5 287 459
25/07/11 18:00 938 29.2 55 1.2 296 242
25/07/11 19:00 938 26.8 30 0.8 301 37
25/07/11 20:00 938 25.5 31 0.5 321 15
25/07/11 21:00 938 24.1 34 0.4 269 0
25/07/11 22:00 939 22.7 38 0.5 278 0
25/07/11 23:00 939 21.9 39 0.6 303 0
25/07/11 24:00 940 20.9 41 0.4 345 0